createdAt,value
2024-02-24T00:00:18.675Z,6.00
2024-02-24T00:02:46.604Z,6.00
2024-02-24T00:05:14.543Z,6.00
2024-02-24T00:07:42.461Z,6.00
2024-02-24T00:10:12.837Z,6.00
2024-02-24T00:12:40.665Z,6.00
2024-02-24T00:15:10.058Z,6.00
2024-02-24T00:17:40.090Z,6.00
2024-02-24T00:20:09.076Z,5.90
2024-02-24T00:22:37.306Z,5.90
2024-02-24T00:25:06.236Z,5.90
2024-02-24T00:27:35.787Z,5.90
2024-02-24T00:30:04.293Z,5.90
2024-02-24T00:32:32.241Z,5.90
2024-02-24T00:35:00.080Z,5.90
2024-02-24T00:37:27.894Z,5.90
2024-02-24T00:39:55.696Z,5.90
2024-02-24T00:42:24.527Z,5.90
2024-02-24T00:44:53.693Z,5.90
2024-02-24T00:47:21.592Z,5.80
2024-02-24T00:49:49.433Z,5.80
2024-02-24T00:52:17.291Z,5.80
2024-02-24T00:54:45.165Z,5.80
2024-02-24T00:57:13.137Z,5.80
2024-02-24T00:59:41.044Z,5.80
2024-02-24T01:02:10.751Z,5.80
2024-02-24T01:04:38.806Z,5.80
2024-02-24T01:07:07.765Z,5.80
2024-02-24T01:09:35.651Z,5.80
2024-02-24T01:12:03.790Z,5.80
2024-02-24T01:14:32.377Z,5.80
2024-02-24T01:17:00.367Z,5.70
2024-02-24T01:19:29.503Z,5.70
2024-02-24T01:21:58.631Z,5.70
2024-02-24T01:24:26.625Z,5.70
2024-02-24T01:26:54.425Z,5.70
2024-02-24T01:29:22.285Z,5.70
2024-02-24T01:31:50.174Z,5.70
2024-02-24T01:34:18.441Z,5.70
2024-02-24T01:36:47.618Z,5.70
2024-02-24T01:39:15.391Z,5.70
2024-02-24T01:41:43.430Z,5.70
2024-02-24T01:44:11.471Z,5.70
2024-02-24T01:46:39.476Z,5.70
2024-02-24T01:49:07.435Z,5.60
2024-02-24T01:51:35.302Z,5.60
2024-02-24T01:54:04.776Z,5.60
2024-02-24T01:56:34.393Z,5.60
2024-02-24T01:59:02.783Z,5.60
2024-02-24T02:01:31.176Z,5.60
2024-02-24T02:04:00.107Z,5.60
2024-02-24T02:06:30.097Z,5.60
2024-02-24T02:08:58.419Z,5.60
2024-02-24T02:11:27.703Z,5.60
2024-02-24T02:13:55.604Z,5.60
2024-02-24T02:16:23.434Z,5.60
2024-02-24T02:18:51.304Z,5.60
2024-02-24T02:21:20.044Z,5.50
2024-02-24T02:23:50.332Z,5.50
2024-02-24T02:26:19.327Z,5.50
2024-02-24T02:28:47.190Z,5.50
2024-02-24T02:31:14.961Z,5.50
2024-02-24T02:33:42.948Z,5.50
2024-02-24T02:36:10.844Z,5.50
2024-02-24T02:38:38.780Z,5.50
2024-02-24T02:41:08.199Z,5.50
2024-02-24T02:43:36.229Z,5.50
2024-02-24T02:46:04.340Z,5.50
2024-02-24T02:48:32.461Z,5.40
2024-02-24T02:51:00.319Z,5.40
2024-02-24T02:53:28.150Z,5.40
2024-02-24T02:55:55.957Z,5.40
2024-02-24T02:58:25.064Z,5.40
2024-02-24T03:00:52.909Z,5.40
2024-02-24T03:03:20.776Z,5.40
2024-02-24T03:05:48.711Z,5.40
2024-02-24T03:08:16.572Z,5.40
2024-02-24T03:11:43.270Z,5.40
2024-02-24T03:14:12.580Z,5.40
2024-02-24T03:16:40.426Z,5.40
2024-02-24T03:19:10.165Z,5.30
2024-02-24T03:21:38.314Z,5.30
2024-02-24T03:24:07.140Z,5.30
2024-02-24T03:26:35.068Z,5.30
2024-02-24T03:29:02.885Z,5.30
2024-02-24T03:31:32.021Z,5.30
2024-02-24T03:33:59.879Z,5.30
2024-02-24T03:36:27.959Z,5.30
2024-02-24T03:38:55.902Z,5.30
2024-02-24T03:41:23.912Z,5.30
2024-02-24T03:43:51.821Z,5.30
2024-02-24T03:46:19.893Z,5.30
2024-02-24T03:48:49.657Z,5.20
2024-02-24T03:51:17.480Z,5.20
2024-02-24T03:53:45.403Z,5.20
2024-02-24T03:56:13.284Z,5.20
2024-02-24T03:58:42.682Z,5.20
2024-02-24T04:01:10.601Z,5.20
2024-02-24T04:03:38.418Z,5.20
2024-02-24T04:06:09.408Z,5.20
2024-02-24T04:08:37.523Z,5.20
2024-02-24T04:11:05.869Z,5.20
2024-02-24T04:13:33.791Z,5.10
2024-02-24T04:16:01.615Z,5.10
2024-02-24T04:18:29.555Z,5.10
2024-02-24T04:20:57.489Z,5.10
2024-02-24T04:23:26.677Z,5.10
2024-02-24T04:25:54.869Z,5.10
2024-02-24T04:28:23.775Z,5.10
2024-02-24T04:30:54.437Z,5.10
2024-02-24T04:33:22.381Z,5.10
2024-02-24T04:35:50.438Z,5.00
2024-02-24T04:38:18.333Z,5.00
2024-02-24T04:40:47.531Z,5.00
2024-02-24T04:43:15.683Z,5.00
2024-02-24T04:45:43.600Z,5.00
2024-02-24T04:48:11.579Z,5.00
2024-02-24T04:50:40.432Z,5.00
2024-02-24T04:53:08.431Z,5.00
2024-02-24T04:55:36.287Z,5.00
2024-02-24T04:58:05.963Z,5.00
2024-02-24T05:00:33.811Z,5.00
2024-02-24T05:03:01.601Z,4.90
2024-02-24T05:05:29.440Z,4.90
2024-02-24T05:07:57.363Z,4.90
2024-02-24T05:10:25.187Z,4.90
2024-02-24T05:12:53.020Z,4.90
2024-02-24T05:15:22.560Z,4.90
2024-02-24T05:17:51.537Z,4.90
2024-02-24T05:20:19.613Z,4.90
2024-02-24T05:22:47.444Z,4.90
2024-02-24T05:25:15.399Z,4.80
2024-02-24T05:27:43.245Z,4.80
2024-02-24T05:30:11.744Z,4.80
2024-02-24T05:32:41.027Z,4.80
2024-02-24T05:35:09.855Z,4.80
2024-02-24T05:37:38.098Z,4.80
2024-02-24T05:40:07.654Z,4.80
2024-02-24T05:42:35.450Z,4.80
2024-02-24T05:45:03.954Z,4.80
2024-02-24T05:47:35.056Z,4.70
2024-02-24T05:50:05.234Z,4.70
2024-02-24T05:52:33.089Z,4.70
2024-02-24T05:55:01.005Z,4.70
2024-02-24T05:57:28.894Z,4.70
2024-02-24T05:59:56.703Z,4.70
2024-02-24T06:02:24.606Z,4.70
2024-02-24T06:04:52.732Z,4.70
2024-02-24T06:07:21.944Z,4.70
2024-02-24T06:09:49.754Z,4.60
2024-02-24T06:12:17.993Z,4.60
2024-02-24T06:14:45.932Z,4.70
2024-02-24T06:17:13.862Z,4.60
2024-02-24T06:19:41.744Z,4.60
2024-02-24T06:22:09.607Z,4.60
2024-02-24T06:24:38.844Z,4.60
2024-02-24T06:27:06.889Z,4.60
2024-02-24T06:29:34.817Z,4.60
2024-02-24T06:32:02.626Z,4.60
2024-02-24T06:34:30.569Z,4.60
2024-02-24T06:36:58.449Z,4.60
2024-02-24T06:39:26.227Z,4.50
2024-02-24T06:41:55.680Z,4.50
2024-02-24T06:44:23.650Z,4.50
2024-02-24T06:46:54.341Z,4.50
2024-02-24T06:49:23.281Z,4.50
2024-02-24T06:51:51.944Z,4.50
2024-02-24T06:54:19.972Z,4.50
2024-02-24T06:56:48.050Z,4.50
2024-02-24T06:59:17.643Z,4.50
2024-02-24T07:01:45.622Z,4.50
2024-02-24T07:04:13.661Z,4.50
2024-02-24T07:06:41.502Z,4.50
2024-02-24T07:09:09.366Z,4.50
2024-02-24T07:11:37.301Z,4.50
2024-02-24T07:14:05.379Z,4.50
2024-02-24T07:16:34.605Z,4.50
2024-02-24T07:19:02.612Z,4.50
2024-02-24T07:21:30.519Z,4.50
2024-02-24T07:23:58.517Z,4.50
2024-02-24T07:26:26.406Z,4.50
2024-02-24T07:28:54.269Z,4.50
2024-02-24T07:31:22.174Z,4.50
2024-02-24T07:33:51.605Z,4.50
2024-02-24T07:36:19.537Z,4.50
2024-02-24T07:38:47.389Z,4.50
2024-02-24T07:41:15.316Z,4.50
2024-02-24T07:43:43.420Z,4.50
2024-02-24T07:46:11.420Z,4.50
2024-02-24T07:48:39.638Z,4.50
2024-02-24T07:51:09.134Z,4.50
2024-02-24T07:53:36.965Z,4.50
2024-02-24T07:56:05.306Z,4.50
2024-02-24T07:58:33.123Z,4.50
2024-02-24T08:01:01.320Z,4.50
2024-02-24T08:03:29.338Z,4.50
2024-02-24T08:05:57.226Z,4.50
2024-02-24T08:08:26.443Z,4.50
2024-02-24T08:10:54.353Z,4.50
2024-02-24T08:13:22.250Z,4.50
2024-02-24T08:15:50.068Z,4.50
2024-02-24T08:18:18.500Z,4.50
2024-02-24T08:20:46.673Z,4.50
2024-02-24T08:23:14.577Z,4.50
2024-02-24T08:25:43.731Z,4.60
2024-02-24T08:28:11.691Z,4.60
2024-02-24T08:30:39.553Z,4.60
2024-02-24T08:33:07.453Z,4.60
2024-02-24T08:35:35.428Z,4.60
2024-02-24T08:38:03.376Z,4.60
2024-02-24T08:40:31.176Z,4.60
2024-02-24T08:43:00.541Z,4.60
2024-02-24T08:45:28.434Z,4.70
2024-02-24T08:47:56.312Z,4.70
2024-02-24T08:50:24.406Z,4.70
2024-02-24T08:52:52.356Z,4.70
2024-02-24T08:55:20.316Z,4.80
2024-02-24T08:57:48.186Z,4.80
2024-02-24T09:00:18.350Z,4.80
2024-02-24T09:02:46.619Z,4.90
2024-02-24T09:05:14.664Z,4.90
2024-02-24T09:07:42.574Z,4.90
2024-02-24T09:10:11.289Z,5.00
2024-02-24T09:12:39.219Z,5.00
2024-02-24T09:15:08.656Z,5.00
2024-02-24T09:17:38.121Z,5.00
2024-02-24T09:20:09.791Z,5.10
2024-02-24T09:22:37.878Z,5.10
2024-02-24T09:25:06.916Z,5.20
2024-02-24T09:27:35.023Z,5.20
2024-02-24T09:30:03.077Z,5.20
2024-02-24T09:32:31.488Z,5.30
2024-02-24T09:35:00.768Z,5.30
2024-02-24T09:37:28.610Z,5.30
2024-02-24T09:39:56.456Z,5.40
2024-02-24T09:42:27.985Z,5.40
2024-02-24T09:44:58.672Z,5.50
2024-02-24T09:47:27.215Z,5.50
2024-02-24T09:49:55.445Z,5.60
2024-02-24T09:52:24.757Z,5.60
2024-02-24T09:54:52.733Z,5.70
2024-02-24T09:57:26.683Z,5.70
2024-02-24T09:59:55.474Z,5.70
2024-02-24T10:02:23.838Z,5.80
2024-02-24T10:04:54.217Z,5.80
2024-02-24T10:07:22.097Z,5.90
2024-02-24T10:09:51.381Z,6.00
2024-02-24T10:12:19.208Z,6.00
2024-02-24T10:14:47.073Z,6.00
2024-02-24T10:17:16.838Z,6.10
2024-02-24T10:19:44.775Z,6.20
2024-02-24T10:22:16.804Z,6.20
2024-02-24T10:24:44.710Z,6.20
2024-02-24T10:27:17.382Z,6.30
2024-02-24T10:29:52.512Z,6.40
2024-02-24T10:32:22.476Z,6.40
2024-02-24T10:34:53.391Z,6.50
2024-02-24T10:37:22.442Z,6.50
2024-02-24T10:39:55.679Z,6.60
2024-02-24T10:42:27.420Z,6.60
2024-02-24T10:44:56.154Z,6.70
2024-02-24T10:47:24.299Z,6.70
2024-02-24T10:49:52.453Z,6.70
2024-02-24T10:52:21.919Z,6.80
2024-02-24T10:54:52.349Z,6.80
2024-02-24T10:57:21.782Z,6.90
2024-02-24T10:59:51.553Z,7.00
2024-02-24T11:02:22.130Z,7.00
2024-02-24T11:04:49.936Z,7.10
2024-02-24T11:07:21.410Z,7.10
2024-02-24T11:09:53.060Z,7.20
2024-02-24T11:12:23.325Z,7.30
2024-02-24T11:14:54.340Z,7.40
2024-02-24T11:17:47.218Z,7.40
2024-02-24T11:20:55.858Z,7.50
2024-02-24T11:23:25.821Z,7.60
2024-02-24T11:26:27.233Z,7.60
2024-02-24T11:29:02.419Z,7.70
2024-02-24T11:31:35.130Z,7.80
2024-02-24T11:34:09.286Z,7.80
2024-02-24T11:36:39.761Z,7.90
2024-02-24T11:39:10.198Z,7.90
2024-02-24T11:41:39.560Z,8.00
2024-02-24T11:44:07.601Z,8.00
2024-02-24T11:46:38.011Z,8.10
2024-02-24T11:49:06.518Z,8.10
2024-02-24T11:51:34.551Z,8.20
2024-02-24T11:54:05.140Z,8.20
2024-02-24T11:56:33.551Z,8.20
2024-02-24T11:59:02.651Z,8.30
2024-02-24T12:01:31.529Z,8.40
2024-02-24T12:04:01.038Z,8.40
2024-02-24T12:06:32.053Z,8.50
2024-02-24T12:09:01.040Z,8.60
2024-02-24T12:11:29.463Z,8.60
2024-02-24T12:13:57.527Z,8.70
2024-02-24T12:16:26.069Z,8.70
2024-02-24T12:18:54.019Z,8.80
2024-02-24T12:21:23.225Z,8.90
2024-02-24T12:23:51.083Z,9.00
2024-02-24T12:26:21.364Z,9.00
2024-02-24T12:28:49.461Z,9.10
2024-02-24T12:31:17.349Z,9.10
2024-02-24T12:33:47.305Z,9.20
2024-02-24T12:36:16.924Z,9.30
2024-02-24T12:38:46.631Z,9.30
2024-02-24T12:41:15.118Z,9.40
2024-02-24T12:43:43.558Z,9.40
2024-02-24T12:46:12.136Z,9.50
2024-02-24T12:48:43.458Z,9.50
2024-02-24T12:51:13.230Z,9.60
2024-02-24T12:53:42.614Z,9.60
2024-02-24T12:56:11.868Z,9.70
2024-02-24T12:58:40.049Z,9.70
2024-02-24T13:01:09.680Z,9.80
2024-02-24T13:03:37.850Z,9.90
2024-02-24T13:06:06.634Z,9.90
2024-02-24T13:08:34.606Z,9.90
2024-02-24T13:11:02.686Z,10.00
2024-02-24T13:13:32.042Z,10.00
2024-02-24T13:15:59.906Z,10.00
2024-02-24T13:18:28.647Z,10.00
2024-02-24T13:20:56.787Z,10.10
2024-02-24T13:23:24.721Z,10.20
2024-02-24T13:28:20.866Z,10.30
2024-02-24T13:30:50.120Z,10.20
2024-02-24T13:33:18.011Z,10.40
2024-02-24T13:35:46.010Z,10.40
2024-02-24T13:38:13.908Z,10.30
2024-02-24T13:40:42.964Z,10.40
2024-02-24T13:43:12.642Z,10.40
2024-02-24T13:45:41.742Z,10.40
2024-02-24T13:48:11.072Z,10.50
2024-02-24T13:50:39.061Z,10.50
2024-02-24T13:53:07.775Z,10.60
2024-02-24T13:55:36.494Z,10.60
2024-02-24T13:58:05.788Z,10.60
2024-02-24T14:00:33.670Z,10.60
2024-02-24T14:03:03.671Z,10.60
2024-02-24T14:05:34.574Z,10.60
2024-02-24T14:08:04.305Z,10.60
2024-02-24T14:10:33.109Z,10.70
2024-02-24T14:13:00.939Z,10.70
2024-02-24T14:15:28.813Z,10.70
2024-02-24T14:17:56.732Z,10.70
2024-02-24T14:20:28.580Z,10.70
2024-02-24T14:22:58.339Z,10.70
2024-02-24T14:25:26.626Z,10.70
2024-02-24T14:27:55.690Z,10.70
2024-02-24T14:30:23.888Z,10.70
2024-02-24T14:32:51.776Z,10.70
2024-02-24T14:35:22.950Z,10.70
2024-02-24T14:37:50.861Z,10.70
2024-02-24T14:40:19.974Z,10.70
2024-02-24T14:42:48.162Z,10.60
2024-02-24T14:45:15.988Z,10.60
2024-02-24T14:47:44.049Z,10.60
2024-02-24T14:50:12.013Z,10.60
2024-02-24T14:52:40.870Z,10.60
2024-02-24T14:55:11.454Z,10.60
2024-02-24T14:57:40.647Z,10.50
2024-02-24T15:00:13.884Z,10.50
2024-02-24T15:02:52.237Z,10.50
2024-02-24T15:05:28.100Z,10.50
2024-02-24T15:07:57.944Z,10.50
2024-02-24T15:10:25.817Z,10.40
2024-02-24T15:12:55.059Z,10.40
2024-02-24T15:15:22.891Z,10.40
2024-02-24T15:17:53.365Z,10.40
2024-02-24T15:20:21.694Z,10.30
2024-02-24T15:22:51.229Z,10.30
2024-02-24T15:25:19.587Z,10.30
2024-02-24T15:27:47.437Z,10.30
2024-02-24T15:30:16.769Z,10.30
2024-02-24T15:32:44.747Z,10.20
2024-02-24T15:35:12.632Z,10.20
2024-02-24T15:37:40.513Z,10.20
2024-02-24T15:40:12.572Z,10.20
2024-02-24T15:42:40.481Z,10.10
2024-02-24T15:45:09.969Z,10.10
2024-02-24T15:47:39.449Z,10.10
2024-02-24T15:50:08.872Z,10.10
2024-02-24T15:52:36.733Z,10.00
2024-02-24T15:55:05.169Z,10.00
2024-02-24T15:57:33.062Z,10.00
2024-02-24T16:00:00.937Z,10.00
2024-02-24T16:02:29.101Z,10.00
2024-02-24T16:04:58.301Z,9.90
2024-02-24T16:07:26.140Z,9.90
2024-02-24T16:09:54.030Z,9.90
2024-02-24T16:12:22.675Z,9.90
2024-02-24T16:14:50.563Z,9.90
2024-02-24T16:17:18.525Z,9.80
2024-02-24T16:19:46.533Z,9.80
2024-02-24T16:22:15.740Z,9.80
2024-02-24T16:24:43.536Z,9.80
2024-02-24T16:27:11.525Z,9.70
2024-02-24T16:29:39.559Z,9.70
2024-02-24T16:32:09.809Z,9.70
2024-02-24T16:34:38.581Z,9.70
2024-02-24T16:37:08.011Z,9.60
2024-02-24T16:39:37.238Z,9.60
2024-02-24T16:42:07.267Z,9.60
2024-02-24T16:44:35.327Z,9.60
2024-02-24T16:47:03.204Z,9.50
2024-02-24T16:49:31.791Z,9.50
2024-02-24T16:51:59.795Z,9.50
2024-02-24T16:54:27.749Z,9.50
2024-02-24T16:56:57.210Z,9.40
2024-02-24T16:59:25.414Z,9.40
2024-02-24T17:01:53.297Z,9.40
2024-02-24T17:04:21.285Z,9.40
2024-02-24T17:06:49.171Z,9.30
2024-02-24T17:09:17.203Z,9.30
2024-02-24T17:11:45.131Z,9.30
2024-02-24T17:14:14.403Z,9.20
2024-02-24T17:16:41.525Z,9.20
2024-02-24T17:19:09.457Z,9.20
2024-02-24T17:21:39.704Z,9.20
2024-02-24T17:24:08.092Z,9.10
2024-02-24T17:26:36.220Z,9.10
2024-02-24T17:29:03.228Z,9.10
2024-02-24T17:31:32.439Z,9.10
2024-02-24T17:34:00.425Z,9.00
2024-02-24T17:36:28.268Z,9.00
2024-02-24T17:38:56.141Z,9.00
2024-02-24T17:41:24.019Z,9.00
2024-02-24T17:43:51.972Z,8.90
2024-02-24T17:46:19.895Z,8.90
2024-02-24T17:48:51.458Z,8.90
2024-02-24T17:51:19.407Z,8.90
2024-02-24T17:53:47.333Z,8.80
2024-02-24T17:56:15.308Z,8.80
2024-02-24T17:58:47.368Z,8.80
2024-02-24T18:01:16.451Z,8.80
2024-02-24T18:03:44.370Z,8.70
2024-02-24T18:06:13.763Z,8.70
2024-02-24T18:08:42.598Z,8.70
2024-02-24T18:11:10.979Z,8.70
2024-02-24T18:13:39.444Z,8.70
2024-02-24T18:16:09.560Z,8.60
2024-02-24T18:18:37.595Z,8.60
2024-02-24T18:21:06.025Z,8.60
2024-02-24T18:23:35.255Z,8.60
2024-02-24T18:26:03.236Z,8.60
2024-02-24T18:28:31.013Z,8.50
2024-02-24T18:30:58.830Z,8.50
2024-02-24T18:33:26.770Z,8.40
2024-02-24T18:35:54.811Z,8.40
2024-02-24T18:38:22.823Z,8.30
2024-02-24T18:40:52.184Z,8.30
2024-02-24T18:43:21.828Z,8.30
2024-02-24T18:45:49.688Z,8.30
2024-02-24T18:48:20.404Z,8.20
2024-02-24T18:50:48.354Z,8.20
2024-02-24T18:53:16.196Z,8.10
2024-02-24T18:55:44.085Z,8.10
2024-02-24T18:58:13.265Z,8.10
2024-02-24T19:00:41.102Z,8.00
2024-02-24T19:03:09.783Z,8.00
2024-02-24T19:05:38.416Z,8.00
2024-02-24T19:08:09.490Z,8.00
2024-02-24T19:10:37.353Z,7.90
2024-02-24T19:13:05.805Z,7.90
2024-02-24T19:15:35.879Z,7.90
2024-02-24T19:18:04.991Z,7.90
2024-02-24T19:20:32.900Z,7.90
2024-02-24T19:23:00.959Z,7.80
2024-02-24T19:25:28.741Z,7.80
2024-02-24T19:27:57.086Z,7.80
2024-02-24T19:30:24.970Z,7.80
2024-02-24T19:32:54.357Z,7.70
2024-02-24T19:35:22.229Z,7.70
2024-02-24T19:37:50.069Z,7.70
2024-02-24T19:40:18.399Z,7.70
2024-02-24T19:42:46.737Z,7.60
2024-02-24T19:45:14.725Z,7.60
2024-02-24T19:47:42.660Z,7.60
2024-02-24T19:50:12.326Z,7.50
2024-02-24T19:52:41.654Z,7.50
2024-02-24T19:55:09.951Z,7.50
2024-02-24T19:57:37.784Z,7.50
2024-02-24T20:00:08.456Z,7.40
2024-02-24T20:02:38.951Z,7.40
2024-02-24T20:05:11.012Z,7.40
2024-02-24T20:07:40.366Z,7.40
2024-02-24T20:10:11.894Z,7.30
2024-02-24T20:12:39.897Z,7.30
2024-02-24T20:15:08.844Z,7.30
2024-02-24T20:17:36.771Z,7.30
2024-02-24T20:20:07.926Z,7.30
2024-02-24T20:22:36.040Z,7.30
2024-02-24T20:25:07.043Z,7.20
2024-02-24T20:27:35.235Z,7.20
2024-02-24T20:30:03.709Z,7.20
2024-02-24T20:32:31.697Z,7.20
2024-02-24T20:34:59.704Z,7.20
2024-02-24T20:37:31.891Z,7.10
2024-02-24T20:40:01.301Z,7.10
2024-02-24T20:42:30.561Z,7.10
2024-02-24T20:44:58.618Z,7.10
2024-02-24T20:47:26.757Z,7.00
2024-02-24T20:49:54.610Z,7.00
2024-02-24T20:52:22.460Z,7.00
2024-02-24T20:54:50.596Z,7.00
2024-02-24T20:57:18.607Z,7.00
2024-02-24T20:59:47.856Z,6.90
2024-02-24T21:02:15.791Z,6.90
2024-02-24T21:04:43.653Z,6.90
2024-02-24T21:07:11.541Z,6.90
2024-02-24T21:09:39.548Z,6.90
2024-02-24T21:12:09.799Z,6.80
2024-02-24T21:14:37.810Z,6.80
2024-02-24T21:17:07.549Z,6.80
2024-02-24T21:19:35.763Z,6.80
2024-02-24T21:22:03.673Z,6.80
2024-02-24T21:24:31.678Z,6.80
2024-02-24T21:27:00.023Z,6.70
2024-02-24T21:29:28.037Z,6.70
2024-02-24T21:31:55.999Z,6.70
2024-02-24T21:34:25.397Z,6.70
2024-02-24T21:36:53.485Z,6.70
2024-02-24T21:39:21.433Z,6.70
2024-02-24T21:41:49.356Z,6.70
2024-02-24T21:44:17.392Z,6.70
2024-02-24T21:46:45.530Z,6.70
2024-02-24T21:49:13.876Z,6.70
2024-02-24T21:51:46.222Z,6.70
2024-02-24T21:54:15.729Z,6.60
2024-02-24T21:56:47.444Z,6.60
2024-02-24T21:59:15.401Z,6.60
2024-02-24T22:01:43.597Z,6.60
2024-02-24T22:04:11.673Z,6.60
2024-02-24T22:06:40.663Z,6.60
2024-02-24T22:09:10.463Z,6.60
2024-02-24T22:11:39.753Z,6.60
2024-02-24T22:14:07.846Z,6.60
2024-02-24T22:16:35.785Z,6.60
2024-02-24T22:19:04.043Z,6.50
2024-02-24T22:21:33.761Z,6.50
2024-02-24T22:24:01.956Z,6.50
2024-02-24T22:26:32.603Z,6.50
2024-02-24T22:29:01.968Z,6.50
2024-02-24T22:31:30.387Z,6.50
2024-02-24T22:33:58.650Z,6.50
2024-02-24T22:36:26.591Z,6.50
2024-02-24T22:38:54.552Z,6.40
2024-02-24T22:41:23.573Z,6.40
2024-02-24T22:43:53.357Z,6.40
2024-02-24T22:46:21.739Z,6.40
2024-02-24T22:48:50.189Z,6.40
2024-02-24T22:51:19.357Z,6.40
2024-02-24T22:53:47.360Z,6.40
2024-02-24T22:56:15.312Z,6.40
2024-02-24T22:58:45.384Z,6.40
2024-02-24T23:01:16.880Z,6.40
2024-02-24T23:03:45.313Z,6.40
2024-02-24T23:06:13.939Z,6.30
2024-02-24T23:08:42.297Z,6.30
2024-02-24T23:11:11.586Z,6.30
2024-02-24T23:13:42.363Z,6.30
2024-02-24T23:16:12.774Z,6.30
2024-02-24T23:18:42.267Z,6.30
2024-02-24T23:21:11.214Z,6.30
2024-02-24T23:23:39.236Z,6.30
2024-02-24T23:26:07.988Z,6.30
2024-02-24T23:28:35.999Z,6.30
2024-02-24T23:31:03.864Z,6.30
2024-02-24T23:33:31.955Z,6.20
2024-02-24T23:36:01.251Z,6.20
2024-02-24T23:38:29.171Z,6.20
2024-02-24T23:40:57.077Z,6.20
2024-02-24T23:43:24.949Z,6.20
2024-02-24T23:45:52.928Z,6.20
2024-02-24T23:48:21.422Z,6.20
2024-02-24T23:50:49.473Z,6.20
2024-02-24T23:53:18.777Z,6.20
2024-02-24T23:55:46.673Z,6.20
2024-02-24T23:58:14.660Z,6.20
